sensor_id;sensor_type;location;lat;lon;timestamp;P1;durP1;ratioP1;P2;durP2;ratioP2
60100;SDS011;45978;53.646;55.930;2022-08-27T00:00:48;20.45;;;15.95;;
60100;SDS011;45978;53.646;55.930;2022-08-27T00:01:49;22.55;;;15.90;;
60100;SDS011;45978;53.646;55.930;2022-08-27T00:02:50;25.02;;;15.35;;
60100;SDS011;45978;53.646;55.930;2022-08-27T00:03:52;26.60;;;16.17;;
60100;SDS011;45978;53.646;55.930;2022-08-27T00:04:54;29.08;;;15.90;;
60100;SDS011;45978;53.646;55.930;2022-08-27T00:05:55;22.50;;;15.45;;
60100;SDS011;45978;53.646;55.930;2022-08-27T00:06:57;30.17;;;16.00;;
60100;SDS011;45978;53.646;55.930;2022-08-27T00:07:58;30.30;;;14.93;;
60100;SDS011;45978;53.646;55.930;2022-08-27T00:08:59;28.05;;;15.23;;
60100;SDS011;45978;53.646;55.930;2022-08-27T00:10:00;22.17;;;15.52;;
60100;SDS011;45978;53.646;55.930;2022-08-27T00:11:01;33.20;;;15.77;;
60100;SDS011;45978;53.646;55.930;2022-08-27T00:12:03;19.95;;;15.00;;
60100;SDS011;45978;53.646;55.930;2022-08-27T00:13:05;23.85;;;14.55;;
60100;SDS011;45978;53.646;55.930;2022-08-27T00:14:07;17.85;;;14.40;;
60100;SDS011;45978;53.646;55.930;2022-08-27T00:15:08;24.23;;;15.05;;
60100;SDS011;45978;53.646;55.930;2022-08-27T00:16:12;23.52;;;15.68;;
60100;SDS011;45978;53.646;55.930;2022-08-27T00:17:14;30.10;;;14.93;;
60100;SDS011;45978;53.646;55.930;2022-08-27T00:18:16;29.70;;;15.10;;
60100;SDS011;45978;53.646;55.930;2022-08-27T00:19:18;22.05;;;15.02;;
60100;SDS011;45978;53.646;55.930;2022-08-27T00:20:21;24.13;;;14.32;;
60100;SDS011;45978;53.646;55.930;2022-08-27T00:21:25;20.45;;;13.77;;
60100;SDS011;45978;53.646;55.930;2022-08-27T00:22:27;21.70;;;15.32;;
60100;SDS011;45978;53.646;55.930;2022-08-27T00:23:29;26.70;;;14.82;;
60100;SDS011;45978;53.646;55.930;2022-08-27T00:24:31;16.55;;;14.43;;
60100;SDS011;45978;53.646;55.930;2022-08-27T00:25:32;26.80;;;14.73;;
60100;SDS011;45978;53.646;55.930;2022-08-27T00:26:33;22.70;;;15.18;;
60100;SDS011;45978;53.646;55.930;2022-08-27T00:27:35;17.23;;;13.77;;
60100;SDS011;45978;53.646;55.930;2022-08-27T00:28:37;23.27;;;14.85;;
60100;SDS011;45978;53.646;55.930;2022-08-27T00:29:39;20.67;;;14.38;;
60100;SDS011;45978;53.646;55.930;2022-08-27T00:30:40;33.58;;;15.13;;
60100;SDS011;45978;53.646;55.930;2022-08-27T00:31:41;24.67;;;15.10;;
60100;SDS011;45978;53.646;55.930;2022-08-27T00:32:42;21.13;;;13.93;;
60100;SDS011;45978;53.646;55.930;2022-08-27T00:33:44;38.30;;;15.02;;
60100;SDS011;45978;53.646;55.930;2022-08-27T00:34:45;24.55;;;14.50;;
60100;SDS011;45978;53.646;55.930;2022-08-27T00:35:47;31.35;;;14.60;;
60100;SDS011;45978;53.646;55.930;2022-08-27T00:36:48;21.08;;;14.07;;
60100;SDS011;45978;53.646;55.930;2022-08-27T00:37:50;32.65;;;14.98;;
60100;SDS011;45978;53.646;55.930;2022-08-27T00:38:51;32.17;;;14.95;;
60100;SDS011;45978;53.646;55.930;2022-08-27T00:39:52;34.38;;;13.88;;
60100;SDS011;45978;53.646;55.930;2022-08-27T00:40:53;24.38;;;14.73;;
60100;SDS011;45978;53.646;55.930;2022-08-27T00:41:55;20.30;;;14.18;;
60100;SDS011;45978;53.646;55.930;2022-08-27T00:42:56;30.50;;;14.48;;
60100;SDS011;45978;53.646;55.930;2022-08-27T00:43:58;28.83;;;14.35;;
60100;SDS011;45978;53.646;55.930;2022-08-27T00:45:00;23.08;;;14.93;;
60100;SDS011;45978;53.646;55.930;2022-08-27T00:46:03;24.35;;;14.18;;
60100;SDS011;45978;53.646;55.930;2022-08-27T00:47:12;19.52;;;14.30;;
60100;SDS011;45978;53.646;55.930;2022-08-27T00:48:16;23.52;;;13.65;;
60100;SDS011;45978;53.646;55.930;2022-08-27T00:49:47;30.33;;;14.25;;
60100;SDS011;45978;53.646;55.930;2022-08-27T00:50:52;23.75;;;14.05;;
60100;SDS011;45978;53.646;55.930;2022-08-27T00:51:56;27.95;;;14.50;;
60100;SDS011;45978;53.646;55.930;2022-08-27T00:53:21;28.95;;;14.27;;
60100;SDS011;45978;53.646;55.930;2022-08-27T00:54:25;26.17;;;13.93;;
60100;SDS011;45978;53.646;55.930;2022-08-27T00:55:29;25.77;;;14.73;;
60100;SDS011;45978;53.646;55.930;2022-08-27T00:56:39;28.33;;;15.02;;
60100;SDS011;45978;53.646;55.930;2022-08-27T00:57:46;31.65;;;14.75;;
60100;SDS011;45978;53.646;55.930;2022-08-27T00:58:54;20.73;;;14.68;;
60100;SDS011;45978;53.646;55.930;2022-08-27T00:59:56;26.83;;;14.95;;
60100;SDS011;45978;53.646;55.930;2022-08-27T01:00:58;35.17;;;15.02;;
60100;SDS011;45978;53.646;55.930;2022-08-27T01:02:00;24.27;;;13.43;;
60100;SDS011;45978;53.646;55.930;2022-08-27T01:03:19;25.63;;;14.50;;
60100;SDS011;45978;53.646;55.930;2022-08-27T01:04:21;19.65;;;14.38;;
60100;SDS011;45978;53.646;55.930;2022-08-27T01:05:22;25.00;;;14.00;;
60100;SDS011;45978;53.646;55.930;2022-08-27T01:06:27;23.05;;;14.63;;
60100;SDS011;45978;53.646;55.930;2022-08-27T01:07:33;30.00;;;14.07;;
60100;SDS011;45978;53.646;55.930;2022-08-27T01:08:38;25.20;;;14.10;;
60100;SDS011;45978;53.646;55.930;2022-08-27T01:09:44;18.70;;;13.95;;
60100;SDS011;45978;53.646;55.930;2022-08-27T01:10:48;41.97;;;14.07;;
60100;SDS011;45978;53.646;55.930;2022-08-27T01:11:50;28.63;;;15.20;;
60100;SDS011;45978;53.646;55.930;2022-08-27T01:12:52;31.27;;;14.50;;
60100;SDS011;45978;53.646;55.930;2022-08-27T01:13:55;32.47;;;13.48;;
60100;SDS011;45978;53.646;55.930;2022-08-27T01:14:57;27.10;;;13.55;;
60100;SDS011;45978;53.646;55.930;2022-08-27T01:15:59;21.80;;;13.63;;
60100;SDS011;45978;53.646;55.930;2022-08-27T01:17:01;21.25;;;12.98;;
60100;SDS011;45978;53.646;55.930;2022-08-27T01:18:05;22.48;;;14.55;;
60100;SDS011;45978;53.646;55.930;2022-08-27T01:19:09;28.02;;;13.52;;
60100;SDS011;45978;53.646;55.930;2022-08-27T01:20:28;80.55;;;14.90;;
60100;SDS011;45978;53.646;55.930;2022-08-27T01:22:57;28.92;;;13.05;;
60100;SDS011;45978;53.646;55.930;2022-08-27T01:25:27;27.05;;;14.02;;
60100;SDS011;45978;53.646;55.930;2022-08-27T01:26:31;35.35;;;13.50;;
60100;SDS011;45978;53.646;55.930;2022-08-27T01:27:32;23.17;;;13.75;;
60100;SDS011;45978;53.646;55.930;2022-08-27T01:28:36;16.15;;;12.95;;
60100;SDS011;45978;53.646;55.930;2022-08-27T01:29:37;24.10;;;13.50;;
60100;SDS011;45978;53.646;55.930;2022-08-27T01:30:39;25.10;;;13.90;;
60100;SDS011;45978;53.646;55.930;2022-08-27T01:31:41;30.13;;;14.27;;
60100;SDS011;45978;53.646;55.930;2022-08-27T01:32:42;28.90;;;13.75;;
60100;SDS011;45978;53.646;55.930;2022-08-27T01:33:55;26.60;;;13.57;;
60100;SDS011;45978;53.646;55.930;2022-08-27T01:35:03;25.45;;;13.63;;
60100;SDS011;45978;53.646;55.930;2022-08-27T01:36:08;21.48;;;13.40;;
60100;SDS011;45978;53.646;55.930;2022-08-27T01:37:10;22.90;;;13.68;;
60100;SDS011;45978;53.646;55.930;2022-08-27T01:38:12;20.25;;;13.05;;
60100;SDS011;45978;53.646;55.930;2022-08-27T01:39:15;29.45;;;14.70;;
60100;SDS011;45978;53.646;55.930;2022-08-27T01:40:17;31.30;;;14.57;;
60100;SDS011;45978;53.646;55.930;2022-08-27T01:41:21;24.30;;;14.02;;
60100;SDS011;45978;53.646;55.930;2022-08-27T01:42:26;21.52;;;14.82;;
60100;SDS011;45978;53.646;55.930;2022-08-27T01:43:31;23.40;;;14.75;;
60100;SDS011;45978;53.646;55.930;2022-08-27T01:44:43;31.08;;;14.77;;
60100;SDS011;45978;53.646;55.930;2022-08-27T01:45:47;24.55;;;14.10;;
60100;SDS011;45978;53.646;55.930;2022-08-27T01:46:50;32.95;;;14.30;;
60100;SDS011;45978;53.646;55.930;2022-08-27T01:47:51;29.73;;;13.25;;
60100;SDS011;45978;53.646;55.930;2022-08-27T01:48:53;18.42;;;13.57;;
60100;SDS011;45978;53.646;55.930;2022-08-27T01:49:55;31.88;;;13.75;;
60100;SDS011;45978;53.646;55.930;2022-08-27T01:50:57;21.25;;;13.15;;
60100;SDS011;45978;53.646;55.930;2022-08-27T01:51:58;24.80;;;15.85;;
60100;SDS011;45978;53.646;55.930;2022-08-27T01:53:03;26.27;;;14.70;;
60100;SDS011;45978;53.646;55.930;2022-08-27T01:54:07;37.25;;;15.10;;
60100;SDS011;45978;53.646;55.930;2022-08-27T01:55:11;23.60;;;14.13;;
60100;SDS011;45978;53.646;55.930;2022-08-27T01:56:14;37.85;;;15.10;;
60100;SDS011;45978;53.646;55.930;2022-08-27T01:57:16;24.63;;;14.80;;
60100;SDS011;45978;53.646;55.930;2022-08-27T01:58:19;24.75;;;13.80;;
60100;SDS011;45978;53.646;55.930;2022-08-27T01:59:22;23.20;;;14.35;;
60100;SDS011;45978;53.646;55.930;2022-08-27T02:00:27;37.40;;;14.70;;
60100;SDS011;45978;53.646;55.930;2022-08-27T02:01:31;27.40;;;13.73;;
60100;SDS011;45978;53.646;55.930;2022-08-27T02:02:32;34.05;;;14.70;;
60100;SDS011;45978;53.646;55.930;2022-08-27T02:03:34;29.05;;;14.38;;
60100;SDS011;45978;53.646;55.930;2022-08-27T02:04:37;40.80;;;15.48;;
60100;SDS011;45978;53.646;55.930;2022-08-27T02:05:39;32.80;;;17.10;;
60100;SDS011;45978;53.646;55.930;2022-08-27T02:06:40;32.10;;;14.68;;
60100;SDS011;45978;53.646;55.930;2022-08-27T02:07:41;44.38;;;14.48;;
60100;SDS011;45978;53.646;55.930;2022-08-27T02:08:43;60.67;;;16.77;;
60100;SDS011;45978;53.646;55.930;2022-08-27T02:09:44;56.50;;;17.02;;
60100;SDS011;45978;53.646;55.930;2022-08-27T02:10:47;57.67;;;15.25;;
60100;SDS011;45978;53.646;55.930;2022-08-27T02:11:49;56.05;;;14.80;;
60100;SDS011;45978;53.646;55.930;2022-08-27T02:12:50;65.97;;;15.30;;
60100;SDS011;45978;53.646;55.930;2022-08-27T02:13:55;47.30;;;12.88;;
60100;SDS011;45978;53.646;55.930;2022-08-27T02:14:56;40.67;;;14.10;;
60100;SDS011;45978;53.646;55.930;2022-08-27T02:15:57;36.05;;;14.30;;
60100;SDS011;45978;53.646;55.930;2022-08-27T02:16:58;59.47;;;15.57;;
60100;SDS011;45978;53.646;55.930;2022-08-27T02:18:00;51.50;;;15.20;;
60100;SDS011;45978;53.646;55.930;2022-08-27T02:19:03;55.80;;;15.50;;
60100;SDS011;45978;53.646;55.930;2022-08-27T02:20:06;47.10;;;14.48;;
60100;SDS011;45978;53.646;55.930;2022-08-27T02:21:10;56.25;;;15.57;;
60100;SDS011;45978;53.646;55.930;2022-08-27T02:22:12;62.15;;;15.98;;
60100;SDS011;45978;53.646;55.930;2022-08-27T02:23:14;48.00;;;15.35;;
60100;SDS011;45978;53.646;55.930;2022-08-27T02:24:16;45.40;;;15.40;;
60100;SDS011;45978;53.646;55.930;2022-08-27T02:25:17;41.17;;;14.32;;
60100;SDS011;45978;53.646;55.930;2022-08-27T02:26:20;38.80;;;15.88;;
60100;SDS011;45978;53.646;55.930;2022-08-27T02:27:21;49.53;;;17.05;;
60100;SDS011;45978;53.646;55.930;2022-08-27T02:28:23;40.83;;;15.70;;
60100;SDS011;45978;53.646;55.930;2022-08-27T02:29:24;67.53;;;16.20;;
60100;SDS011;45978;53.646;55.930;2022-08-27T02:30:25;56.00;;;15.23;;
60100;SDS011;45978;53.646;55.930;2022-08-27T02:31:29;63.55;;;16.27;;
60100;SDS011;45978;53.646;55.930;2022-08-27T02:32:32;55.55;;;16.17;;
60100;SDS011;45978;53.646;55.930;2022-08-27T02:33:33;46.45;;;15.15;;
60100;SDS011;45978;53.646;55.930;2022-08-27T02:34:34;66.85;;;19.27;;
60100;SDS011;45978;53.646;55.930;2022-08-27T02:35:36;53.22;;;16.77;;
60100;SDS011;45978;53.646;55.930;2022-08-27T02:36:43;48.67;;;16.02;;
60100;SDS011;45978;53.646;55.930;2022-08-27T02:37:44;65.75;;;17.13;;
60100;SDS011;45978;53.646;55.930;2022-08-27T02:38:46;55.05;;;16.85;;
60100;SDS011;45978;53.646;55.930;2022-08-27T02:39:47;51.78;;;16.83;;
60100;SDS011;45978;53.646;55.930;2022-08-27T02:40:49;50.60;;;17.45;;
60100;SDS011;45978;53.646;55.930;2022-08-27T02:41:50;48.03;;;17.27;;
60100;SDS011;45978;53.646;55.930;2022-08-27T02:42:51;50.03;;;16.45;;
60100;SDS011;45978;53.646;55.930;2022-08-27T02:43:52;44.83;;;16.58;;
60100;SDS011;45978;53.646;55.930;2022-08-27T02:44:54;39.80;;;15.73;;
60100;SDS011;45978;53.646;55.930;2022-08-27T02:45:55;35.00;;;14.98;;
60100;SDS011;45978;53.646;55.930;2022-08-27T02:46:57;37.03;;;16.13;;
60100;SDS011;45978;53.646;55.930;2022-08-27T02:47:58;34.22;;;15.90;;
60100;SDS011;45978;53.646;55.930;2022-08-27T02:48:59;39.05;;;15.57;;
60100;SDS011;45978;53.646;55.930;2022-08-27T02:50:00;48.97;;;15.75;;
60100;SDS011;45978;53.646;55.930;2022-08-27T02:51:04;38.38;;;16.15;;
60100;SDS011;45978;53.646;55.930;2022-08-27T02:52:06;35.10;;;15.82;;
60100;SDS011;45978;53.646;55.930;2022-08-27T02:53:08;31.67;;;15.23;;
60100;SDS011;45978;53.646;55.930;2022-08-27T02:54:09;40.83;;;16.35;;
60100;SDS011;45978;53.646;55.930;2022-08-27T02:55:13;34.92;;;15.85;;
60100;SDS011;45978;53.646;55.930;2022-08-27T02:56:16;39.90;;;14.60;;
60100;SDS011;45978;53.646;55.930;2022-08-27T02:57:17;33.78;;;15.13;;
60100;SDS011;45978;53.646;55.930;2022-08-27T02:58:18;28.27;;;14.52;;
60100;SDS011;45978;53.646;55.930;2022-08-27T02:59:20;23.58;;;15.00;;
60100;SDS011;45978;53.646;55.930;2022-08-27T03:00:22;50.92;;;15.25;;
60100;SDS011;45978;53.646;55.930;2022-08-27T03:01:25;38.53;;;15.50;;
60100;SDS011;45978;53.646;55.930;2022-08-27T03:02:26;44.00;;;15.05;;
60100;SDS011;45978;53.646;55.930;2022-08-27T03:03:28;48.30;;;16.00;;
60100;SDS011;45978;53.646;55.930;2022-08-27T03:04:29;53.10;;;15.02;;
60100;SDS011;45978;53.646;55.930;2022-08-27T03:05:30;29.95;;;14.35;;
60100;SDS011;45978;53.646;55.930;2022-08-27T03:06:32;38.95;;;16.23;;
60100;SDS011;45978;53.646;55.930;2022-08-27T03:07:33;48.10;;;15.82;;
60100;SDS011;45978;53.646;55.930;2022-08-27T03:08:34;51.13;;;16.05;;
60100;SDS011;45978;53.646;55.930;2022-08-27T03:09:35;43.28;;;16.42;;
60100;SDS011;45978;53.646;55.930;2022-08-27T03:10:37;39.00;;;15.45;;
60100;SDS011;45978;53.646;55.930;2022-08-27T03:11:39;51.40;;;15.80;;
60100;SDS011;45978;53.646;55.930;2022-08-27T03:12:41;66.65;;;16.85;;
60100;SDS011;45978;53.646;55.930;2022-08-27T03:13:43;40.28;;;14.60;;
60100;SDS011;45978;53.646;55.930;2022-08-27T03:14:44;39.65;;;16.10;;
60100;SDS011;45978;53.646;55.930;2022-08-27T03:15:46;48.40;;;15.02;;
60100;SDS011;45978;53.646;55.930;2022-08-27T03:16:47;47.58;;;16.58;;
60100;SDS011;45978;53.646;55.930;2022-08-27T03:17:48;58.95;;;15.75;;
60100;SDS011;45978;53.646;55.930;2022-08-27T03:19:09;64.20;;;16.55;;
60100;SDS011;45978;53.646;55.930;2022-08-27T03:20:10;44.50;;;15.57;;
60100;SDS011;45978;53.646;55.930;2022-08-27T03:21:18;45.72;;;15.93;;
60100;SDS011;45978;53.646;55.930;2022-08-27T03:22:24;44.28;;;15.70;;
60100;SDS011;45978;53.646;55.930;2022-08-27T03:23:27;57.35;;;16.08;;
60100;SDS011;45978;53.646;55.930;2022-08-27T03:24:34;42.35;;;15.65;;
60100;SDS011;45978;53.646;55.930;2022-08-27T03:25:36;59.55;;;16.13;;
60100;SDS011;45978;53.646;55.930;2022-08-27T03:26:38;50.88;;;16.42;;
60100;SDS011;45978;53.646;55.930;2022-08-27T03:27:39;39.47;;;16.05;;
60100;SDS011;45978;53.646;55.930;2022-08-27T03:28:40;52.45;;;16.45;;
60100;SDS011;45978;53.646;55.930;2022-08-27T03:29:41;53.88;;;17.42;;
60100;SDS011;45978;53.646;55.930;2022-08-27T03:30:46;50.40;;;16.80;;
60100;SDS011;45978;53.646;55.930;2022-08-27T03:31:48;51.15;;;17.77;;
60100;SDS011;45978;53.646;55.930;2022-08-27T03:32:49;63.13;;;17.67;;
60100;SDS011;45978;53.646;55.930;2022-08-27T03:34:01;64.25;;;17.88;;
60100;SDS011;45978;53.646;55.930;2022-08-27T03:35:07;44.90;;;16.98;;
60100;SDS011;45978;53.646;55.930;2022-08-27T03:36:09;58.42;;;17.55;;
60100;SDS011;45978;53.646;55.930;2022-08-27T03:37:10;57.75;;;18.00;;
60100;SDS011;45978;53.646;55.930;2022-08-27T03:38:14;51.38;;;17.70;;
60100;SDS011;45978;53.646;55.930;2022-08-27T03:39:17;46.15;;;17.05;;
60100;SDS011;45978;53.646;55.930;2022-08-27T03:40:18;51.75;;;18.38;;
60100;SDS011;45978;53.646;55.930;2022-08-27T03:41:22;41.85;;;17.58;;
60100;SDS011;45978;53.646;55.930;2022-08-27T03:42:24;48.00;;;17.45;;
60100;SDS011;45978;53.646;55.930;2022-08-27T03:43:25;45.88;;;17.83;;
60100;SDS011;45978;53.646;55.930;2022-08-27T03:44:26;196.75;;;23.73;;
60100;SDS011;45978;53.646;55.930;2022-08-27T03:45:28;55.88;;;18.25;;
60100;SDS011;45978;53.646;55.930;2022-08-27T03:46:30;47.85;;;17.77;;
60100;SDS011;45978;53.646;55.930;2022-08-27T03:47:31;68.55;;;18.40;;
60100;SDS011;45978;53.646;55.930;2022-08-27T03:48:33;55.80;;;18.50;;
60100;SDS011;45978;53.646;55.930;2022-08-27T03:49:35;52.22;;;18.58;;
60100;SDS011;45978;53.646;55.930;2022-08-27T03:50:40;41.00;;;18.42;;
60100;SDS011;45978;53.646;55.930;2022-08-27T03:51:43;68.93;;;17.98;;
60100;SDS011;45978;53.646;55.930;2022-08-27T03:52:44;52.95;;;19.50;;
60100;SDS011;45978;53.646;55.930;2022-08-27T03:53:45;55.97;;;20.17;;
60100;SDS011;45978;53.646;55.930;2022-08-27T03:54:47;70.18;;;19.38;;
60100;SDS011;45978;53.646;55.930;2022-08-27T03:55:48;64.38;;;20.08;;
60100;SDS011;45978;53.646;55.930;2022-08-27T03:56:50;70.53;;;20.88;;
60100;SDS011;45978;53.646;55.930;2022-08-27T03:57:51;44.80;;;19.88;;
60100;SDS011;45978;53.646;55.930;2022-08-27T03:58:52;46.13;;;20.25;;
60100;SDS011;45978;53.646;55.930;2022-08-27T03:59:53;58.58;;;20.45;;
60100;SDS011;45978;53.646;55.930;2022-08-27T04:00:56;55.08;;;19.08;;
60100;SDS011;45978;53.646;55.930;2022-08-27T04:01:57;53.95;;;20.13;;
60100;SDS011;45978;53.646;55.930;2022-08-27T04:03:00;55.35;;;21.55;;
60100;SDS011;45978;53.646;55.930;2022-08-27T04:04:02;57.17;;;21.20;;
60100;SDS011;45978;53.646;55.930;2022-08-27T04:05:03;49.60;;;22.08;;
60100;SDS011;45978;53.646;55.930;2022-08-27T04:06:05;57.42;;;23.13;;
60100;SDS011;45978;53.646;55.930;2022-08-27T04:07:06;74.05;;;22.75;;
60100;SDS011;45978;53.646;55.930;2022-08-27T04:08:09;60.13;;;21.55;;
60100;SDS011;45978;53.646;55.930;2022-08-27T04:09:11;82.53;;;21.90;;
60100;SDS011;45978;53.646;55.930;2022-08-27T04:10:12;66.32;;;23.23;;
60100;SDS011;45978;53.646;55.930;2022-08-27T04:11:15;51.97;;;21.77;;
60100;SDS011;45978;53.646;55.930;2022-08-27T04:12:17;49.08;;;21.27;;
60100;SDS011;45978;53.646;55.930;2022-08-27T04:13:18;57.80;;;21.83;;
60100;SDS011;45978;53.646;55.930;2022-08-27T04:14:19;56.35;;;20.77;;
60100;SDS011;45978;53.646;55.930;2022-08-27T04:15:21;53.38;;;20.48;;
60100;SDS011;45978;53.646;55.930;2022-08-27T04:16:22;53.28;;;21.70;;
60100;SDS011;45978;53.646;55.930;2022-08-27T04:17:25;48.45;;;20.45;;
60100;SDS011;45978;53.646;55.930;2022-08-27T04:18:26;69.78;;;22.63;;
60100;SDS011;45978;53.646;55.930;2022-08-27T04:19:29;87.85;;;24.17;;
60100;SDS011;45978;53.646;55.930;2022-08-27T04:20:32;67.45;;;22.45;;
60100;SDS011;45978;53.646;55.930;2022-08-27T04:21:34;82.93;;;22.60;;
60100;SDS011;45978;53.646;55.930;2022-08-27T04:22:36;174.68;;;25.55;;
60100;SDS011;45978;53.646;55.930;2022-08-27T04:23:39;193.15;;;28.77;;
60100;SDS011;45978;53.646;55.930;2022-08-27T04:24:42;138.25;;;25.55;;
60100;SDS011;45978;53.646;55.930;2022-08-27T04:25:43;112.68;;;23.42;;
60100;SDS011;45978;53.646;55.930;2022-08-27T04:26:45;68.22;;;23.88;;
60100;SDS011;45978;53.646;55.930;2022-08-27T04:27:47;57.90;;;23.05;;
60100;SDS011;45978;53.646;55.930;2022-08-27T04:28:48;54.35;;;22.17;;
60100;SDS011;45978;53.646;55.930;2022-08-27T04:29:52;47.35;;;22.15;;
60100;SDS011;45978;53.646;55.930;2022-08-27T04:30:54;42.78;;;19.38;;
60100;SDS011;45978;53.646;55.930;2022-08-27T04:31:57;46.30;;;20.80;;
60100;SDS011;45978;53.646;55.930;2022-08-27T04:32:59;38.30;;;19.65;;
60100;SDS011;45978;53.646;55.930;2022-08-27T04:34:00;46.15;;;20.42;;
60100;SDS011;45978;53.646;55.930;2022-08-27T04:35:01;56.95;;;22.92;;
60100;SDS011;45978;53.646;55.930;2022-08-27T04:36:06;47.08;;;20.95;;
60100;SDS011;45978;53.646;55.930;2022-08-27T04:37:09;48.90;;;21.13;;
60100;SDS011;45978;53.646;55.930;2022-08-27T04:38:10;29.25;;;19.40;;
60100;SDS011;45978;53.646;55.930;2022-08-27T04:39:12;37.63;;;22.08;;
60100;SDS011;45978;53.646;55.930;2022-08-27T04:40:14;45.22;;;20.55;;
60100;SDS011;45978;53.646;55.930;2022-08-27T04:41:15;39.30;;;21.13;;
60100;SDS011;45978;53.646;55.930;2022-08-27T04:42:19;45.95;;;21.52;;
60100;SDS011;45978;53.646;55.930;2022-08-27T04:43:20;43.67;;;21.17;;
60100;SDS011;45978;53.646;55.930;2022-08-27T04:44:22;41.55;;;20.45;;
60100;SDS011;45978;53.646;55.930;2022-08-27T04:45:24;48.33;;;23.30;;
60100;SDS011;45978;53.646;55.930;2022-08-27T04:46:26;47.25;;;23.85;;
60100;SDS011;45978;53.646;55.930;2022-08-27T04:47:30;61.30;;;27.88;;
60100;SDS011;45978;53.646;55.930;2022-08-27T04:48:31;47.08;;;26.67;;
60100;SDS011;45978;53.646;55.930;2022-08-27T04:49:32;47.80;;;27.17;;
60100;SDS011;45978;53.646;55.930;2022-08-27T04:50:37;58.45;;;25.80;;
60100;SDS011;45978;53.646;55.930;2022-08-27T04:51:41;57.65;;;25.25;;
60100;SDS011;45978;53.646;55.930;2022-08-27T04:52:42;62.85;;;29.88;;
60100;SDS011;45978;53.646;55.930;2022-08-27T04:53:44;65.07;;;32.10;;
60100;SDS011;45978;53.646;55.930;2022-08-27T04:54:47;67.35;;;33.70;;
60100;SDS011;45978;53.646;55.930;2022-08-27T04:55:52;72.22;;;39.92;;
60100;SDS011;45978;53.646;55.930;2022-08-27T04:56:55;95.63;;;43.22;;
60100;SDS011;45978;53.646;55.930;2022-08-27T04:57:57;98.35;;;51.28;;
60100;SDS011;45978;53.646;55.930;2022-08-27T04:58:58;113.22;;;56.40;;
60100;SDS011;45978;53.646;55.930;2022-08-27T05:00:01;98.97;;;54.88;;
60100;SDS011;45978;53.646;55.930;2022-08-27T05:01:03;106.40;;;54.58;;
60100;SDS011;45978;53.646;55.930;2022-08-27T05:02:05;111.90;;;54.75;;
60100;SDS011;45978;53.646;55.930;2022-08-27T05:03:08;108.78;;;55.10;;
60100;SDS011;45978;53.646;55.930;2022-08-27T05:04:11;108.93;;;53.83;;
60100;SDS011;45978;53.646;55.930;2022-08-27T05:05:15;103.10;;;53.97;;
60100;SDS011;45978;53.646;55.930;2022-08-27T05:06:16;105.00;;;53.17;;
60100;SDS011;45978;53.646;55.930;2022-08-27T05:07:17;107.18;;;53.17;;
60100;SDS011;45978;53.646;55.930;2022-08-27T05:08:19;95.72;;;52.60;;
60100;SDS011;45978;53.646;55.930;2022-08-27T05:09:20;102.13;;;52.50;;
60100;SDS011;45978;53.646;55.930;2022-08-27T05:10:22;97.88;;;50.67;;
60100;SDS011;45978;53.646;55.930;2022-08-27T05:11:23;113.95;;;50.42;;
60100;SDS011;45978;53.646;55.930;2022-08-27T05:12:28;102.63;;;48.95;;
60100;SDS011;45978;53.646;55.930;2022-08-27T05:13:29;97.10;;;46.10;;
60100;SDS011;45978;53.646;55.930;2022-08-27T05:14:30;97.57;;;47.47;;
60100;SDS011;45978;53.646;55.930;2022-08-27T05:15:32;97.40;;;47.00;;
60100;SDS011;45978;53.646;55.930;2022-08-27T05:16:33;103.53;;;48.53;;
60100;SDS011;45978;53.646;55.930;2022-08-27T05:17:38;116.93;;;46.63;;
60100;SDS011;45978;53.646;55.930;2022-08-27T05:18:39;86.60;;;41.80;;
60100;SDS011;45978;53.646;55.930;2022-08-27T05:19:41;93.13;;;44.05;;
60100;SDS011;45978;53.646;55.930;2022-08-27T05:20:44;86.93;;;42.25;;
60100;SDS011;45978;53.646;55.930;2022-08-27T05:21:47;82.57;;;42.38;;
60100;SDS011;45978;53.646;55.930;2022-08-27T05:22:50;100.57;;;43.25;;
60100;SDS011;45978;53.646;55.930;2022-08-27T05:23:52;94.53;;;41.08;;
60100;SDS011;45978;53.646;55.930;2022-08-27T05:24:55;106.20;;;43.03;;
60100;SDS011;45978;53.646;55.930;2022-08-27T05:25:56;99.72;;;43.72;;
60100;SDS011;45978;53.646;55.930;2022-08-27T05:26:58;100.25;;;42.30;;
60100;SDS011;45978;53.646;55.930;2022-08-27T05:27:59;85.22;;;41.35;;
60100;SDS011;45978;53.646;55.930;2022-08-27T05:29:01;106.95;;;42.33;;
60100;SDS011;45978;53.646;55.930;2022-08-27T05:30:03;87.78;;;40.83;;
60100;SDS011;45978;53.646;55.930;2022-08-27T05:31:05;96.88;;;39.65;;
60100;SDS011;45978;53.646;55.930;2022-08-27T05:32:08;98.55;;;38.28;;
60100;SDS011;45978;53.646;55.930;2022-08-27T05:33:09;99.28;;;37.75;;
60100;SDS011;45978;53.646;55.930;2022-08-27T05:34:15;118.32;;;39.88;;
60100;SDS011;45978;53.646;55.930;2022-08-27T05:35:17;115.13;;;40.47;;
60100;SDS011;45978;53.646;55.930;2022-08-27T05:36:26;85.90;;;37.15;;
60100;SDS011;45978;53.646;55.930;2022-08-27T05:37:29;119.85;;;37.28;;
60100;SDS011;45978;53.646;55.930;2022-08-27T05:38:33;111.38;;;38.80;;
60100;SDS011;45978;53.646;55.930;2022-08-27T05:39:35;124.68;;;40.70;;
60100;SDS011;45978;53.646;55.930;2022-08-27T05:40:37;149.07;;;42.75;;
60100;SDS011;45978;53.646;55.930;2022-08-27T05:41:40;119.57;;;41.03;;
60100;SDS011;45978;53.646;55.930;2022-08-27T05:42:45;130.60;;;39.20;;
60100;SDS011;45978;53.646;55.930;2022-08-27T05:43:47;128.00;;;37.85;;
60100;SDS011;45978;53.646;55.930;2022-08-27T05:44:48;108.88;;;37.08;;
60100;SDS011;45978;53.646;55.930;2022-08-27T05:45:49;118.78;;;39.22;;
60100;SDS011;45978;53.646;55.930;2022-08-27T05:46:51;129.02;;;38.33;;
60100;SDS011;45978;53.646;55.930;2022-08-27T05:47:52;122.32;;;39.70;;
60100;SDS011;45978;53.646;55.930;2022-08-27T05:48:57;145.00;;;42.30;;
60100;SDS011;45978;53.646;55.930;2022-08-27T05:49:59;135.18;;;39.47;;
60100;SDS011;45978;53.646;55.930;2022-08-27T05:51:16;135.52;;;37.53;;
60100;SDS011;45978;53.646;55.930;2022-08-27T05:52:22;120.22;;;37.42;;
60100;SDS011;45978;53.646;55.930;2022-08-27T05:53:23;132.25;;;38.58;;
60100;SDS011;45978;53.646;55.930;2022-08-27T05:54:24;166.40;;;40.38;;
60100;SDS011;45978;53.646;55.930;2022-08-27T05:55:25;161.20;;;40.92;;
60100;SDS011;45978;53.646;55.930;2022-08-27T05:56:27;150.05;;;40.50;;
60100;SDS011;45978;53.646;55.930;2022-08-27T05:57:30;150.25;;;40.22;;
60100;SDS011;45978;53.646;55.930;2022-08-27T05:58:31;154.27;;;39.40;;
60100;SDS011;45978;53.646;55.930;2022-08-27T05:59:51;170.00;;;38.75;;
60100;SDS011;45978;53.646;55.930;2022-08-27T06:01:14;189.73;;;40.13;;
60100;SDS011;45978;53.646;55.930;2022-08-27T06:02:21;201.63;;;40.70;;
60100;SDS011;45978;53.646;55.930;2022-08-27T06:03:28;191.15;;;39.92;;
60100;SDS011;45978;53.646;55.930;2022-08-27T06:04:29;201.70;;;40.40;;